Terminal Aerodrome Forecast
Issued by NWS Spokane, WA

Home | Current Version | Previous Version | Text Only | Print | Product List | Glossary On
Versions: 1 2 3 4 5 6 7 8 9 10 11 12 13 14 15 16 17 18 19 20 21 22 23 24 25 26 27 28
000
FTUS46 KOTX 062320
TAFEAT
TAF
KEAT 062320Z 0700/0724 30015G24KT P6SM VCSH SCT070 BKN100
     FM070300 30012KT P6SM SCT100 SCT200
     FM072000 30014G20KT P6SM SKC=

USA.gov is the U.S. government's official web portal to all federal, state and local government web resources and services.